Waterfront 5k 2019-20 - Event 12

Tuesday, January 7, 2020 17:48 (GMT+13) - Final results

Race info
Sport: Running
Location: Wellington, New Zealand
Start type: Mass start
Racers: 178
Timed on: iPad
Timed with: Webscorer PRO 4.2
Chip timing: RFID - LLRP
RFID reader: Radiant
Updated: Tuesday, January 21, 2020 06:10 (GMT+13)
Race notes
(at last completed and full set of results after all first timers registration details have been populated

Everyone - last night was an amazing turnout - 337 runners and walkers to start 2020.

We are impressed! (and after at last finishing the data entry for the new registration exhausted).

We look forward to next Tuesday for the continuing Waterfront 5k adventures. - See you then!

Thank you All! (especially to all the helpers/volunteers/pacers etc behind the scenes from Wellington Scottish that help make the Waterfront 5k what it was last night - and ever week over summer) - Again thank you all
Show more Show less

Contact organizer

Use this form to send an email to the organizer.

Your name
Your email address
Confirm email address
Message to organizer
Send

Place Bib Racer name Affiliation Category Gender Finish time
1150Ben TwymanCrofton Downs M20-29M 15:58.1--100%33.03%30.97%
2596James RichardsonMairangi M40-49M 16:33.8+0:35.7+3.73%96.41%30.53%28.40%
390Michael du ToitEbdentown M20-29M 16:50.8+0:52.7+5.50%94.79%29.35%27.17%
4537Tommy BoydTe Aro M20-29M 17:04.4+1:06.3+6.92%93.53%28.40%26.19%
5484John BealeLower Hutt M40-49M 17:24.1+1:26.0+8.98%91.76%27.02%24.77%
6627Grant McleanKarori M50-59M 17:24.8+1:26.7+9.05%91.70%26.97%24.72%
7620Stuart EnglebackWilton M20-29M 17:29.7+1:31.6+9.56%91.27%26.63%24.37%
8642Paul ShoemarkJohnsonville M30-39M 17:38.2+1:40.1+10.45%90.54%26.03%23.76%
9655Jamie DuncanKarori M30-39M 17:38.5+1:40.4+10.48%90.51%26.01%23.74%
10669Max CopelyWellington M30-39M 17:44.4+1:46.3+11.09%90.01%25.60%23.31%
11226Josh JordanKingsley Heights M10-19M 17:52.5+1:54.4+11.94%89.33%25.03%22.73%
12225Bevan CoxHataitai M10-19M 18:00.1+2:02.0+12.73%88.70%24.50%22.18%
13590Charles WiseThorndon M20-29M 18:02.3+2:04.2+12.96%88.52%24.35%22.02%
14264Dion YiwHataitai M30-39M 18:04.1+2:06.0+13.15%88.38%24.22%21.89%
15168Tyrone MackintoshKarori M30-39M 18:05.3+2:07.2+13.28%88.28%24.14%21.81%
16209Andy JohnKarori M30-39M 18:09.8+2:11.7+13.75%87.92%23.82%21.48%
17629Mir BalochIsland bay M30-39M 18:21.5+2:23.4+14.97%86.98%23.01%20.64%
18678Matt BrettMiramar M20-29M 18:22.6+2:24.5+15.08%86.89%22.93%20.56%
19224Callum WosStokes Valley M10-19M 18:22.8+2:24.7+15.10%86.88%22.92%20.54%
20248Neil LynchOriedntal Bay M30-39M 18:25.1+2:27.0+15.34%86.70%22.75%20.38%
21694James WaiteKelburn M40-49M 18:31.2+2:33.1+15.98%86.22%22.33%19.94%
22443JOHN CREWEIsland bay M20-29M 18:33.7+2:35.6+16.24%86.03%22.15%19.76%
23358Hartley Malcolm-StevensBrooklyn M30-39M 18:42.9+2:44.8+17.20%85.32%21.51%19.10%
24561Jake HansonWellington M-unknownM 18:56.6+2:58.5+18.63%84.30%20.55%18.11%
25683Oliver HowittKingston M30-39M 19:08.2+3:10.1+19.84%83.44%19.74%17.27%
26591Chris JuchnowiczPapakowhai M30-39M 19:13.0+3:14.9+20.34%83.10%19.41%16.93%
27147Jonathon JacksonWellington M20-29M 19:28.4+3:30.3+21.95%82.00%18.33%15.82%
28337Nick WhalleyThorndon M-unknownM 19:28.5+3:30.4+21.96%81.99%18.32%15.81%
2926Andreas StockingerHataitai M20-29M 19:32.1+3:34.0+22.34%81.74%18.07%15.55%
30634Matt WoodPlimmerton M40-49M 19:35.7+3:37.6+22.71%81.49%17.82%15.29%
31656Warrick GrayHataitai M40-49M 19:37.0+3:38.9+22.85%81.40%17.73%15.20%
3280Hayden SmithRoseneath M30-39M 19:39.5+3:41.4+23.11%81.23%17.55%15.02%
33539Kaden CherianHataitai M40-49M 19:39.7+3:41.6+23.13%81.22%17.54%15.00%
34712Paul KellyNewtown M30-39M 19:41.9+3:43.8+23.36%81.06%17.39%14.85%
35592Michael BaughenPaparangi M30-39M 19:43.8+3:45.7+23.56%80.93%17.25%14.71%
36315Robert PaternosterWellington M-unknownM 19:46.8+3:48.7+23.87%80.73%17.04%14.49%
37276Ben CartwrightMount Victoria M20-29M 19:50.2+3:52.1+24.23%80.50%16.81%14.25%
38356Richard ClaesKelburn M30-39M 19:51.4+3:53.3+24.35%80.42%16.72%14.16%
39581Iain ShawNgaio M30-39M 19:55.5+3:57.4+24.78%80.14%16.44%13.87%
40654Peter ButlerBlue Mountains M30-39M 19:56.2+3:58.1+24.85%80.10%16.39%13.82%
41622James TurnerHighbury M50-59M 19:56.8+3:58.7+24.91%80.06%16.35%13.77%
42231Wayne PatrickHighbury M40-49M 19:58.0+3:59.9+25.04%79.97%16.26%13.69%
43207Michael WrayWellington M50-59M 20:04.7+4:06.6+25.74%79.53%15.79%13.20%
44318Matt VeldeKingston M40-49M 20:07.8+4:09.7+26.06%79.33%15.58%12.98%
4563Karl JacksonSouthgate M30-39M 20:23.1+4:25.0+27.66%78.33%14.51%11.88%
466Jamie Te HiwiTe Aro M40-49M 20:25.2+4:27.1+27.88%78.20%14.36%11.73%
47329JAcob RiceUpper Hutt M00-09M 20:30.5+4:32.4+28.43%77.86%13.99%11.34%
4856Alistair CollowMount Victoria M20-29M 20:34.8+4:36.7+28.88%77.59%13.69%11.03%
49232Chris MatthewsM20-29M 20:38.1+4:40.0+29.22%77.38%13.46%10.80%
50740Robin Cameron-JonesWaterloo M40-49M 20:43.5+4:45.4+29.79%77.05%13.08%10.41%
51610Harry BarnesTawa M30-39M 20:47.1+4:49.0+30.16%76.83%12.83%10.15%
52467Eoin LinehanMount Victoria M30-39M 20:50.5+4:52.4+30.52%76.62%12.59%9.90%
53616Lewis HudsonWellington M30-39M 20:56.6+4:58.5+31.16%76.25%12.17%9.46%
54611Richard HendersonUpper Hutt M30-39M 20:58.5+5:00.4+31.35%76.13%12.03%9.33%
55157Peter PlowmanAro Valley M40-49M 21:00.1+5:02.0+31.52%76.03%11.92%9.21%
56143David WatlingMelrose M30-39M 21:14.5+5:16.4+33.02%75.17%10.91%8.17%
57210Stuart CretonVogeltown M40-49M 21:15.4+5:17.3+33.12%75.12%10.85%8.11%
5849Brendan HaileHataitai M30-39M 21:16.9+5:18.8+33.27%75.03%10.75%8.00%
59140Neil WilsonMount Victoria M40-49M 21:20.6+5:22.5+33.66%74.82%10.49%7.73%
60250Lewis BrockTe Aro M30-39M 21:26.5+5:28.4+34.28%74.47%10.08%7.31%
61540Chris LaiWellington M40-49M 21:27.4+5:29.3+34.37%74.42%10.01%7.24%
62613Marshall ClarkWadestown M60-69M 21:27.8+5:29.7+34.41%74.40%9.98%7.22%
63638Julian MatthewJohnsonville M40-49M 21:31.7+5:33.6+34.82%74.17%9.71%6.93%
64364Simon TemplemanNgaio M30-39M 21:36.5+5:38.4+35.32%73.90%9.38%6.59%
65660Ty LoveridgeMiramar M-unknownM 21:38.5+5:40.4+35.53%73.79%9.24%6.44%
66653Tim MaddockMount Cook M20-29M 21:39.5+5:41.4+35.63%73.73%9.17%6.37%
67684Campbell BlackTawa M40-49M 21:43.2+5:45.1+36.02%73.52%8.91%6.11%
68703Matt PembertonRoseneath M30-39M 21:53.1+5:55.0+37.05%72.96%8.22%5.39%
69306Tom HollowayWellington M20-29M 21:56.1+5:58.0+37.37%72.80%8.01%5.18%
70437Caleb RiceUpper Hutt M10-19M 22:00.4+6:02.3+37.81%72.56%7.71%4.87%
71297Jordan CollinsMornington M30-39M 22:06.2+6:08.1+38.42%72.24%7.30%4.45%
71730Stu ChandlerBelmonth M50-59M 22:06.2+6:08.1+38.42%72.24%7.30%4.45%
7336Fred MwilaTawa M50-59M 22:15.4+6:17.3+39.38%71.75%6.66%3.79%
74601Ben Van BerkelNewlands M30-39M 22:18.3+6:20.2+39.68%71.59%6.45%3.58%
75473Patrick RobyKelburn M30-39M 22:18.4+6:20.3+39.69%71.59%6.45%3.57%
76454Ben DaviesWellington M20-29M 22:22.6+6:24.5+40.13%71.36%6.15%3.27%
77664Zac MetinWellington M20-29M 22:30.3+6:32.2+40.94%70.95%5.62%2.71%
78734Tui McInnesWellington M20-29M 22:31.4+6:33.3+41.05%70.90%5.54%2.63%
795Michael MurphyKelburn M30-39M 22:32.7+6:34.6+41.19%70.83%5.45%2.54%
80650Ashley LamontKelburn M50-59M 22:34.0+6:35.9+41.32%70.76%5.36%2.45%
81496Daniel RakicNewtown M30-39M 22:43.7+6:45.6+42.33%70.26%4.68%1.75%
8227Matthew WomackHataitai M30-39M 22:45.5+6:47.4+42.52%70.16%4.55%1.62%
83697Chris O'ConnorNewtown M40-49M 22:47.3+6:49.2+42.71%70.07%4.43%1.49%
84305Ming Shang NgWellington M20-29M 22:53.0+6:54.9+43.30%69.78%4.03%1.08%
85747Dexter FryThorndon M20-29M 22:55.4+6:57.3+43.55%69.66%3.86%0.90%
86658Danny EyreKingston M30-39M 22:57.5+6:59.4+43.77%69.55%3.71%0.75%
8743Tom McSherryTe Aro M30-39M 22:59.1+7:01.0+43.94%69.47%3.60%0.64%
8822Frank ColeBrooklyn M50-59M 23:04.6+7:06.5+44.52%69.20%3.22%0.24%
89345Yu RenWellington M30-39M 23:06.1+7:08.0+44.67%69.12%3.11%0.13%
902Chris JamesHataitai M30-39M 23:09.8+7:11.7+45.06%68.94%2.85%-0.13%
91309Jonathon HARPERWellington M60-69M 23:11.0+7:12.9+45.18%68.88%2.77%-0.22%
92731Mal VirideWellington M-unknownM 23:12.8+7:14.7+45.37%68.79%2.65%-0.35%
9378Antony PaltridgeWellington Central M50-59M 23:25.0+7:26.9+46.64%68.19%1.79%-1.23%
94585Steve AitkenWellington M50-59M 23:29.3+7:31.2+47.09%67.98%1.49%-1.54%
95719Sam GwynnMelrose M30-39M 23:33.2+7:35.1+47.50%67.80%1.22%-1.82%
96278Ben MorrowMount Victoria M20-29M 23:35.5+7:37.4+47.74%67.69%1.06%-1.98%
97125Christopher JoyceWellington M20-29M 23:36.7+7:38.6+47.87%67.63%0.97%-2.07%
98208Joseph McAuleyM40-49M 23:41.1+7:43.0+48.32%67.42%0.67%-2.39%
99470Chris BaldasIsland bay M30-39M 23:42.9+7:44.8+48.51%67.33%0.54%-2.52%
100728Tawhai MossEpuni M-unknownM 23:43.1+7:45.0+48.53%67.32%0.53%-2.53%
101682Evan WilliamsThorndon M30-39M 23:47.8+7:49.7+49.02%67.10%0.20%-2.87%
102198Justin YoungNewtown M30-39M 23:56.0+7:57.9+49.88%66.72%-0.37%-3.46%
103319Gareth ThomasPaekakariki M40-49M 24:03.9+8:05.8+50.70%66.36%-0.93%-4.03%
104184Ben CurranTe Aro M20-29M 24:05.4+8:07.3+50.86%66.29%-1.03%-4.14%
105327Timothy YoungWellington M30-39M 24:09.4+8:11.3+51.28%66.10%-1.31%-4.43%
10613Sebastien BrachetWellington M30-39M 24:11.9+8:13.8+51.54%65.99%-1.49%-4.61%
107205Christopher TimmonsKelburn M30-39M 24:18.2+8:20.1+52.20%65.70%-1.93%-5.06%
108126Dylan LangeHataitai M20-29M 24:20.5+8:22.4+52.44%65.60%-2.09%-5.23%
109623Marc WaltonThorndon M30-39M 24:24.5+8:26.4+52.85%65.42%-2.37%-5.52%
110741Sam WilliamsFairfield M30-39M 24:25.5+8:27.4+52.96%65.38%-2.44%-5.59%
111704Charles WhitakerLower Hutt M30-39M 24:30.7+8:32.6+53.50%65.15%-2.80%-5.96%
112448David RileyKhandallah M30-39M 24:31.7+8:33.6+53.61%65.10%-2.87%-6.03%
113440Luca SansonBrooklyn M10-19M 24:32.4+8:34.3+53.68%65.07%-2.92%-6.08%
11468Chris LeeM30-39M 24:34.3+8:36.2+53.88%64.99%-3.05%-6.22%
115612Ryan WilmshurstHoughton Bay M20-29M 24:40.4+8:42.3+54.51%64.72%-3.48%-6.66%
116624Luke HaywardOriental Bay M20-29M 24:47.9+8:49.8+55.30%64.39%-4.00%-7.20%
117560Rob SansonBrooklyn M40-49M 24:51.7+8:53.6+55.69%64.23%-4.27%-7.48%
118691Matt LawrenceThorndon M50-59M 24:53.3+8:55.2+55.86%64.16%-4.38%-7.59%
119317Angus HawkinsIsland bay M20-29M 24:54.2+8:56.1+55.95%64.12%-4.44%-7.66%
120547Micah BurgosNgaio M20-29M 24:54.8+8:56.7+56.02%64.10%-4.48%-7.70%
121272Frank GrieveAro Valley M30-39M 24:55.9+8:57.8+56.13%64.05%-4.56%-7.78%
122351Peter MurmuLower Hutt M30-39M 25:02.8+9:04.7+56.85%63.75%-5.04%-8.27%
123515Dylan MulderWellington M30-39M 25:08.1+9:10.0+57.41%63.53%-5.41%-8.66%
124188Chris JenkinsonWellington Central M30-39M 25:18.5+9:20.4+58.49%63.10%-6.14%-9.41%
125594Kirk OlssonLower Hutt M20-29M 25:32.4+9:34.3+59.94%62.52%-7.11%-10.41%
1262344Jason ChengTe Aro M30-39M 25:39.2+9:41.1+60.65%62.25%-7.59%-10.90%
127495Edward GilbertsonMiramar M20-29M 25:41.0+9:42.9+60.84%62.17%-7.71%-11.03%
127643Phil GoodwinBrooklyn M50-59M 25:41.0+9:42.9+60.84%62.17%-7.71%-11.03%
129331Lance RiceUpper Hutt M50-59M 25:42.2+9:44.1+60.96%62.13%-7.80%-11.11%
130405Dennis HardieWilton M60-69M 25:48.6+9:50.5+61.63%61.87%-8.25%-11.57%
131742Tyler BainM40-49M 26:20.7+10:22.6+64.98%60.61%-10.49%-13.89%
132659Roger MarwickNgaio M-unknownM 26:24.0+10:25.9+65.33%60.49%-10.72%-14.13%
133645James HarleyWadestown M10-19M 26:24.4+10:26.3+65.37%60.47%-10.75%-14.15%
13458Michael O'ConnorTe Aro M30-39M 26:28.7+10:30.6+65.82%60.31%-11.05%-14.46%
135548Samuel OldAro Valley M20-29M 26:35.0+10:36.9+66.48%60.07%-11.49%-14.92%
136657Aaron BarklaMount Cook M20-29M 26:37.0+10:38.9+66.68%59.99%-11.63%-15.06%
137662Rafael AnjosTe Aro M30-39M 26:47.3+10:49.2+67.76%59.61%-12.35%-15.80%
138681Dan PriceCrofton Downs M30-39M 26:56.0+10:57.9+68.67%59.29%-12.96%-16.43%
139756Ed JordanKingsley Heights M40-49M 26:59.7+11:01.6+69.05%59.15%-13.22%-16.70%
140665Michael AloryWellington M-unknownM 27:05.8+11:07.7+69.69%58.93%-13.64%-17.14%
141685Ralph DickinsonWellington M60-69M 27:07.7+11:09.6+69.89%58.86%-13.77%-17.27%
142702Clinton LewisKentucky - USA M40-49M 27:09.1+11:11.0+70.03%58.81%-13.87%-17.37%
143514Joseph Du ToitUpper Hutt M10-19M 27:21.0+11:22.9+71.28%58.39%-14.70%-18.23%
144524Leo BrowningAro Valley M20-29M 27:33.3+11:35.2+72.56%57.95%-15.56%-19.12%
1452384Brent GolderTe Aro M30-39M 27:37.6+11:39.5+73.01%57.80%-15.86%-19.43%
146714Tommy SoriaJohnsonville M10-19M 27:40.7+11:42.6+73.33%57.69%-16.08%-19.65%
147266Russell HardingKarori M60-69M 27:43.3+11:45.2+73.60%57.60%-16.26%-19.84%
148145Lawrence ChuNewtown M20-29M 28:00.8+12:02.7+75.43%57.00%-17.49%-21.10%
14955Don McLaren-SmithKelburn M50-59M 28:09.4+12:11.3+76.33%56.71%-18.09%-21.72%
150324Tim SwanM30-39M 28:14.0+12:15.9+76.81%56.56%-18.41%-22.05%
151326Nick DavisBroadmeadows M30-39M 28:15.7+12:17.6+76.99%56.50%-18.53%-22.17%
152727Colin RobinsonKelburn M-unknownM 28:16.5+12:18.4+77.07%56.48%-18.58%-22.23%
153709Joey AuTaita M30-39M 28:18.2+12:20.1+77.25%56.42%-18.70%-22.35%
154648Tim DukeKarori M40-49M 28:19.6+12:21.5+77.39%56.37%-18.80%-22.45%
1559Paul JohansonAro Valley M30-39M 28:43.3+12:45.2+79.87%55.60%-20.46%-24.16%
156726Raphael SolomonWellington M20-29M 28:44.0+12:45.9+79.94%55.57%-20.51%-24.21%
15718Adam BennettsAro Valley M40-49M 29:04.4+13:06.3+82.07%54.92%-21.93%-25.68%
158626Ruben BettertonM-unknownM 29:12.6+13:14.5+82.92%54.67%-22.50%-26.27%
159422Jason TaylorWellington CBD M50-59M 29:17.0+13:18.9+83.38%54.53%-22.81%-26.59%
160636Bon ScottWellington M20-29M 29:34.4+13:36.3+85.20%54.00%-24.03%-27.84%
161674Theo WallPorirua M00-09M 30:02.8+14:04.7+88.16%53.15%-26.01%-29.89%
162706Tim NaylorVogeltown M60-69M 30:12.7+14:14.6+89.20%52.85%-26.71%-30.60%
163325Shelton HarleyWadestown M40-49M 30:32.8+14:34.7+91.30%52.28%-28.11%-32.05%
164280Ethan AbbeyRoseneath M30-39M 30:35.4+14:37.3+91.57%52.20%-28.29%-32.24%
165676Phil WallPorirua M50-59M 30:51.7+14:53.6+93.27%51.74%-29.43%-33.41%
16635Michael SovikTe Aro M50-59M 30:52.8+14:54.7+93.38%51.71%-29.51%-33.49%
167508Paul JakobsPorirua M50-59M 31:06.6+15:08.5+94.82%51.33%-30.47%-34.49%
168183Jayesh MorarLyall Bay M30-39M 32:13.0+16:14.9+101.75%49.57%-35.11%-39.27%
169593Rey PerryUpper Hutt M30-39M 32:13.8+16:15.7+101.84%49.54%-35.17%-39.33%
170722Jonny WilliamsWellington M30-39M 32:40.9+16:42.8+104.67%48.86%-37.06%-41.28%
171675Daniel Foster-LynamTawa M40-49M 33:00.7+17:02.6+106.73%48.37%-38.45%-42.71%
172640James CroashBerhampore M20-29M 33:05.0+17:06.9+107.18%48.27%-38.75%-43.02%
173357Gerry ConveryWellington M50-59M 33:25.4+17:27.3+109.31%47.78%-40.17%-44.49%
174696Brent HardyKhandallah M50-59M 35:01.7+19:03.6+119.36%45.59%-46.91%-51.42%
175724Tom StephensonTe Aro M30-39M 35:16.6+19:18.5+120.92%45.27%-47.95%-52.50%
176255Nick WillmottNgaio M30-39M 36:06.1+20:08.0+126.08%44.23%-51.41%-56.06%
177603Shailendra RastogiWellington M30-39M 36:20.1+20:22.0+127.54%43.95%-52.39%-57.07%
178635Hanish AroraWellington M30-39M 54:13.8+38:15.7+239.61%29.45%-127.44%-134.43%